sensor_id;sensor_type;location;lat;lon;timestamp;temperature;humidity
27797;DHT22;15177;50.844;4.412;2023-07-31T08:54:09;19.00;99.90
27797;DHT22;15177;50.844;4.412;2023-07-31T08:56:36;18.90;99.90
27797;DHT22;15177;50.844;4.412;2023-07-31T08:59:03;18.80;99.90
27797;DHT22;15177;50.844;4.412;2023-07-31T09:01:30;18.90;99.90
27797;DHT22;15177;50.844;4.412;2023-07-31T09:03:59;19.00;99.90
27797;DHT22;15177;50.844;4.412;2023-07-31T09:06:28;19.00;99.90
27797;DHT22;15177;50.844;4.412;2023-07-31T09:08:56;18.90;99.90
27797;DHT22;15177;50.844;4.412;2023-07-31T09:11:23;19.00;99.90
27797;DHT22;15177;50.844;4.412;2023-07-31T09:13:49;19.00;99.90
27797;DHT22;15177;50.844;4.412;2023-07-31T09:16:15;19.20;99.90
27797;DHT22;15177;50.844;4.412;2023-07-31T09:18:54;19.30;99.90
27797;DHT22;15177;50.844;4.412;2023-07-31T09:21:24;19.50;99.90
27797;DHT22;15177;50.844;4.412;2023-07-31T09:23:51;19.50;99.90
27797;DHT22;15177;50.844;4.412;2023-07-31T09:28:58;19.70;99.90
27797;DHT22;15177;50.844;4.412;2023-07-31T09:31:43;19.70;99.90
27797;DHT22;15177;50.844;4.412;2023-07-31T09:34:09;19.80;99.90
27797;DHT22;15177;50.844;4.412;2023-07-31T09:36:47;19.90;99.90
27797;DHT22;15177;50.844;4.412;2023-07-31T09:39:13;20.00;99.90
27797;DHT22;15177;50.844;4.412;2023-07-31T09:41:43;20.10;99.90
27797;DHT22;15177;50.844;4.412;2023-07-31T09:44:09;20.00;99.90
27797;DHT22;15177;50.844;4.412;2023-07-31T09:46:35;19.80;99.90
27797;DHT22;15177;50.844;4.412;2023-07-31T09:49:09;19.80;99.90
27797;DHT22;15177;50.844;4.412;2023-07-31T09:51:38;19.90;99.90
27797;DHT22;15177;50.844;4.412;2023-07-31T09:54:13;19.80;99.90
27797;DHT22;15177;50.844;4.412;2023-07-31T09:56:45;19.90;99.90
27797;DHT22;15177;50.844;4.412;2023-07-31T09:59:13;19.80;99.90
27797;DHT22;15177;50.844;4.412;2023-07-31T10:01:40;19.80;99.90
27797;DHT22;15177;50.844;4.412;2023-07-31T10:04:08;19.90;99.90
27797;DHT22;15177;50.844;4.412;2023-07-31T10:06:35;20.00;99.90
27797;DHT22;15177;50.844;4.412;2023-07-31T10:09:03;20.10;99.90
27797;DHT22;15177;50.844;4.412;2023-07-31T10:11:34;20.00;99.90
27797;DHT22;15177;50.844;4.412;2023-07-31T10:14:01;19.90;99.90
27797;DHT22;15177;50.844;4.412;2023-07-31T10:16:27;19.80;99.90
27797;DHT22;15177;50.844;4.412;2023-07-31T10:18:54;19.90;99.90
27797;DHT22;15177;50.844;4.412;2023-07-31T10:21:20;19.90;99.90
27797;DHT22;15177;50.844;4.412;2023-07-31T10:23:46;20.10;99.90
27797;DHT22;15177;50.844;4.412;2023-07-31T10:26:17;20.30;99.90
27797;DHT22;15177;50.844;4.412;2023-07-31T10:28:46;20.50;99.90
27797;DHT22;15177;50.844;4.412;2023-07-31T10:31:12;20.60;99.90
27797;DHT22;15177;50.844;4.412;2023-07-31T10:33:39;20.90;99.90
27797;DHT22;15177;50.844;4.412;2023-07-31T10:36:19;21.00;99.90
27797;DHT22;15177;50.844;4.412;2023-07-31T10:38:45;21.00;99.90
27797;DHT22;15177;50.844;4.412;2023-07-31T10:41:14;20.90;99.90
27797;DHT22;15177;50.844;4.412;2023-07-31T10:43:40;20.80;99.90
27797;DHT22;15177;50.844;4.412;2023-07-31T10:46:13;20.70;99.90
27797;DHT22;15177;50.844;4.412;2023-07-31T10:48:40;20.60;99.90
27797;DHT22;15177;50.844;4.412;2023-07-31T10:51:10;20.50;99.90
27797;DHT22;15177;50.844;4.412;2023-07-31T10:53:38;20.50;99.90
27797;DHT22;15177;50.844;4.412;2023-07-31T10:56:07;20.60;99.90
27797;DHT22;15177;50.844;4.412;2023-07-31T10:58:33;20.60;99.90
27797;DHT22;15177;50.844;4.412;2023-07-31T11:01:03;20.70;99.90
27797;DHT22;15177;50.844;4.412;2023-07-31T11:03:49;20.60;99.90
27797;DHT22;15177;50.844;4.412;2023-07-31T11:06:18;20.80;99.90
27797;DHT22;15177;50.844;4.412;2023-07-31T11:08:48;20.80;99.90
27797;DHT22;15177;50.844;4.412;2023-07-31T11:11:17;20.80;99.90
27797;DHT22;15177;50.844;4.412;2023-07-31T11:16:16;21.00;99.90
27797;DHT22;15177;50.844;4.412;2023-07-31T11:18:44;21.00;99.90
27797;DHT22;15177;50.844;4.412;2023-07-31T11:21:18;21.00;99.90
27797;DHT22;15177;50.844;4.412;2023-07-31T11:23:49;21.10;99.90
27797;DHT22;15177;50.844;4.412;2023-07-31T11:26:15;21.10;99.90
27797;DHT22;15177;50.844;4.412;2023-07-31T11:28:41;21.30;99.90
27797;DHT22;15177;50.844;4.412;2023-07-31T11:31:10;21.20;99.90
27797;DHT22;15177;50.844;4.412;2023-07-31T11:33:36;21.20;99.90
27797;DHT22;15177;50.844;4.412;2023-07-31T11:36:02;21.00;99.90
27797;DHT22;15177;50.844;4.412;2023-07-31T11:38:30;20.90;99.90
27797;DHT22;15177;50.844;4.412;2023-07-31T11:41:05;20.90;99.90
27797;DHT22;15177;50.844;4.412;2023-07-31T11:43:31;21.00;99.90
27797;DHT22;15177;50.844;4.412;2023-07-31T11:45:59;21.00;99.90
27797;DHT22;15177;50.844;4.412;2023-07-31T11:48:30;21.10;99.90
27797;DHT22;15177;50.844;4.412;2023-07-31T11:51:00;21.10;99.90
27797;DHT22;15177;50.844;4.412;2023-07-31T11:53:51;21.00;99.90
27797;DHT22;15177;50.844;4.412;2023-07-31T11:56:19;21.00;99.90
27797;DHT22;15177;50.844;4.412;2023-07-31T11:58:51;21.00;99.90
27797;DHT22;15177;50.844;4.412;2023-07-31T12:01:19;20.90;99.90
27797;DHT22;15177;50.844;4.412;2023-07-31T12:03:47;20.90;99.90
27797;DHT22;15177;50.844;4.412;2023-07-31T12:06:13;21.00;99.90
27797;DHT22;15177;50.844;4.412;2023-07-31T12:08:38;21.00;99.90
27797;DHT22;15177;50.844;4.412;2023-07-31T12:11:07;21.20;99.90
27797;DHT22;15177;50.844;4.412;2023-07-31T12:13:35;21.40;99.90
27797;DHT22;15177;50.844;4.412;2023-07-31T12:16:02;21.60;99.90
27797;DHT22;15177;50.844;4.412;2023-07-31T12:18:34;21.70;99.90
27797;DHT22;15177;50.844;4.412;2023-07-31T12:21:04;21.80;99.90
27797;DHT22;15177;50.844;4.412;2023-07-31T12:23:31;21.80;99.90
27797;DHT22;15177;50.844;4.412;2023-07-31T12:26:14;21.80;99.90
27797;DHT22;15177;50.844;4.412;2023-07-31T12:28:48;21.80;99.90
27797;DHT22;15177;50.844;4.412;2023-07-31T12:31:16;21.70;99.90
27797;DHT22;15177;50.844;4.412;2023-07-31T12:33:46;21.60;99.90
27797;DHT22;15177;50.844;4.412;2023-07-31T12:36:15;21.70;99.90
27797;DHT22;15177;50.844;4.412;2023-07-31T12:38:42;21.70;99.90
27797;DHT22;15177;50.844;4.412;2023-07-31T12:41:08;21.60;99.90
27797;DHT22;15177;50.844;4.412;2023-07-31T12:43:39;21.60;99.90
27797;DHT22;15177;50.844;4.412;2023-07-31T12:46:07;21.60;99.90
27797;DHT22;15177;50.844;4.412;2023-07-31T12:48:38;21.60;99.90
27797;DHT22;15177;50.844;4.412;2023-07-31T12:51:10;21.80;99.90
27797;DHT22;15177;50.844;4.412;2023-07-31T12:53:36;22.00;99.90
27797;DHT22;15177;50.844;4.412;2023-07-31T12:56:02;22.10;99.90
27797;DHT22;15177;50.844;4.412;2023-07-31T12:58:28;22.10;99.90
27797;DHT22;15177;50.844;4.412;2023-07-31T13:00:54;22.00;99.90
27797;DHT22;15177;50.844;4.412;2023-07-31T13:03:19;21.80;99.90
27797;DHT22;15177;50.844;4.412;2023-07-31T13:05:45;21.50;99.90
27797;DHT22;15177;50.844;4.412;2023-07-31T13:08:11;21.20;99.90
27797;DHT22;15177;50.844;4.412;2023-07-31T13:10:41;21.00;99.90
27797;DHT22;15177;50.844;4.412;2023-07-31T13:13:07;20.90;99.90
27797;DHT22;15177;50.844;4.412;2023-07-31T13:15:32;20.90;99.90
27797;DHT22;15177;50.844;4.412;2023-07-31T13:17:58;20.80;99.90
27797;DHT22;15177;50.844;4.412;2023-07-31T13:20:25;20.80;99.90
27797;DHT22;15177;50.844;4.412;2023-07-31T13:22:50;20.90;99.90
27797;DHT22;15177;50.844;4.412;2023-07-31T13:25:16;20.90;99.90
27797;DHT22;15177;50.844;4.412;2023-07-31T13:27:42;20.90;99.90
27797;DHT22;15177;50.844;4.412;2023-07-31T13:30:08;20.70;99.90
27797;DHT22;15177;50.844;4.412;2023-07-31T13:32:33;20.50;99.90
27797;DHT22;15177;50.844;4.412;2023-07-31T13:35:05;20.50;99.90
27797;DHT22;15177;50.844;4.412;2023-07-31T13:37:30;20.40;99.90
27797;DHT22;15177;50.844;4.412;2023-07-31T13:39:56;20.30;99.90
27797;DHT22;15177;50.844;4.412;2023-07-31T13:42:22;20.30;99.90
27797;DHT22;15177;50.844;4.412;2023-07-31T13:44:47;20.20;99.90
27797;DHT22;15177;50.844;4.412;2023-07-31T13:47:13;20.10;99.90
27797;DHT22;15177;50.844;4.412;2023-07-31T13:49:40;20.00;99.90
27797;DHT22;15177;50.844;4.412;2023-07-31T13:52:07;20.00;99.90
27797;DHT22;15177;50.844;4.412;2023-07-31T13:54:32;20.00;99.90
27797;DHT22;15177;50.844;4.412;2023-07-31T13:56:58;19.90;99.90
27797;DHT22;15177;50.844;4.412;2023-07-31T13:59:24;19.90;99.90
27797;DHT22;15177;50.844;4.412;2023-07-31T14:01:50;19.90;99.90
27797;DHT22;15177;50.844;4.412;2023-07-31T14:04:16;19.90;99.90
27797;DHT22;15177;50.844;4.412;2023-07-31T14:06:43;19.90;99.90
27797;DHT22;15177;50.844;4.412;2023-07-31T14:09:08;19.80;99.90
27797;DHT22;15177;50.844;4.412;2023-07-31T14:11:34;19.60;99.90
27797;DHT22;15177;50.844;4.412;2023-07-31T14:14:01;19.50;99.90
27797;DHT22;15177;50.844;4.412;2023-07-31T14:16:27;19.50;99.90
27797;DHT22;15177;50.844;4.412;2023-07-31T14:18:53;19.60;99.90
27797;DHT22;15177;50.844;4.412;2023-07-31T14:21:19;19.60;99.90
27797;DHT22;15177;50.844;4.412;2023-07-31T14:23:46;19.60;99.90
27797;DHT22;15177;50.844;4.412;2023-07-31T14:26:12;19.60;99.90
27797;DHT22;15177;50.844;4.412;2023-07-31T14:28:38;19.60;99.90
27797;DHT22;15177;50.844;4.412;2023-07-31T14:31:03;19.60;99.90
27797;DHT22;15177;50.844;4.412;2023-07-31T14:33:29;19.60;99.90
27797;DHT22;15177;50.844;4.412;2023-07-31T14:35:55;19.60;99.90
27797;DHT22;15177;50.844;4.412;2023-07-31T14:38:20;19.70;99.90
27797;DHT22;15177;50.844;4.412;2023-07-31T14:40:46;19.60;99.90
27797;DHT22;15177;50.844;4.412;2023-07-31T14:43:12;19.70;99.90
27797;DHT22;15177;50.844;4.412;2023-07-31T14:45:38;19.70;99.90
27797;DHT22;15177;50.844;4.412;2023-07-31T14:48:03;19.60;99.90
27797;DHT22;15177;50.844;4.412;2023-07-31T14:50:29;19.70;99.90
27797;DHT22;15177;50.844;4.412;2023-07-31T14:52:55;19.70;99.90
27797;DHT22;15177;50.844;4.412;2023-07-31T14:55:21;19.80;99.90
27797;DHT22;15177;50.844;4.412;2023-07-31T14:57:47;19.70;99.90
27797;DHT22;15177;50.844;4.412;2023-07-31T15:00:13;19.60;99.90
27797;DHT22;15177;50.844;4.412;2023-07-31T15:02:40;19.60;99.90
27797;DHT22;15177;50.844;4.412;2023-07-31T15:05:07;19.70;99.90
27797;DHT22;15177;50.844;4.412;2023-07-31T15:07:33;19.70;99.90
27797;DHT22;15177;50.844;4.412;2023-07-31T15:10:00;19.60;99.90
27797;DHT22;15177;50.844;4.412;2023-07-31T15:12:26;19.70;99.90
27797;DHT22;15177;50.844;4.412;2023-07-31T15:14:53;19.70;99.90
27797;DHT22;15177;50.844;4.412;2023-07-31T15:17:19;19.70;99.90
27797;DHT22;15177;50.844;4.412;2023-07-31T15:19:44;19.70;99.90
27797;DHT22;15177;50.844;4.412;2023-07-31T15:22:10;19.80;99.90
27797;DHT22;15177;50.844;4.412;2023-07-31T15:24:36;19.60;99.90
27797;DHT22;15177;50.844;4.412;2023-07-31T15:27:02;19.60;99.90
27797;DHT22;15177;50.844;4.412;2023-07-31T15:29:29;19.70;99.90
27797;DHT22;15177;50.844;4.412;2023-07-31T15:31:55;19.70;99.90
27797;DHT22;15177;50.844;4.412;2023-07-31T15:34:21;19.70;99.90
27797;DHT22;15177;50.844;4.412;2023-07-31T15:36:47;19.70;99.90
27797;DHT22;15177;50.844;4.412;2023-07-31T15:39:13;19.60;99.90
27797;DHT22;15177;50.844;4.412;2023-07-31T15:41:40;19.50;99.90
27797;DHT22;15177;50.844;4.412;2023-07-31T15:44:06;19.50;99.90
27797;DHT22;15177;50.844;4.412;2023-07-31T15:46:32;19.40;99.90
27797;DHT22;15177;50.844;4.412;2023-07-31T15:48:58;19.40;99.90
27797;DHT22;15177;50.844;4.412;2023-07-31T15:51:24;19.40;99.90
27797;DHT22;15177;50.844;4.412;2023-07-31T15:53:50;19.30;99.90
27797;DHT22;15177;50.844;4.412;2023-07-31T15:56:16;19.30;99.90
27797;DHT22;15177;50.844;4.412;2023-07-31T15:58:42;19.40;99.90
27797;DHT22;15177;50.844;4.412;2023-07-31T16:01:08;19.30;99.90
27797;DHT22;15177;50.844;4.412;2023-07-31T16:03:34;19.30;99.90
27797;DHT22;15177;50.844;4.412;2023-07-31T16:05:59;19.30;99.90
27797;DHT22;15177;50.844;4.412;2023-07-31T16:08:25;19.30;99.90
27797;DHT22;15177;50.844;4.412;2023-07-31T16:10:51;19.30;99.90
27797;DHT22;15177;50.844;4.412;2023-07-31T16:13:17;19.30;99.90
27797;DHT22;15177;50.844;4.412;2023-07-31T16:15:42;19.30;99.90
27797;DHT22;15177;50.844;4.412;2023-07-31T16:18:08;19.40;99.90
27797;DHT22;15177;50.844;4.412;2023-07-31T16:20:36;19.30;99.90
27797;DHT22;15177;50.844;4.412;2023-07-31T16:23:02;19.40;99.90
27797;DHT22;15177;50.844;4.412;2023-07-31T16:25:27;19.40;99.90
27797;DHT22;15177;50.844;4.412;2023-07-31T16:27:53;19.40;99.90
27797;DHT22;15177;50.844;4.412;2023-07-31T16:30:19;19.40;99.90
27797;DHT22;15177;50.844;4.412;2023-07-31T16:32:44;19.40;99.90
27797;DHT22;15177;50.844;4.412;2023-07-31T16:35:12;19.40;99.90
27797;DHT22;15177;50.844;4.412;2023-07-31T16:37:38;19.30;99.90
27797;DHT22;15177;50.844;4.412;2023-07-31T16:40:06;19.20;99.90
27797;DHT22;15177;50.844;4.412;2023-07-31T16:42:32;19.20;99.90
27797;DHT22;15177;50.844;4.412;2023-07-31T16:44:57;19.20;99.90
27797;DHT22;15177;50.844;4.412;2023-07-31T16:47:23;19.20;99.90
27797;DHT22;15177;50.844;4.412;2023-07-31T16:49:49;19.20;99.90
27797;DHT22;15177;50.844;4.412;2023-07-31T16:52:14;19.20;99.90
27797;DHT22;15177;50.844;4.412;2023-07-31T16:54:40;19.20;99.90
27797;DHT22;15177;50.844;4.412;2023-07-31T16:57:06;19.30;99.90
27797;DHT22;15177;50.844;4.412;2023-07-31T16:59:31;19.30;99.90
27797;DHT22;15177;50.844;4.412;2023-07-31T17:01:57;19.30;99.90
27797;DHT22;15177;50.844;4.412;2023-07-31T17:04:23;19.30;99.90
27797;DHT22;15177;50.844;4.412;2023-07-31T17:06:48;19.30;99.90
27797;DHT22;15177;50.844;4.412;2023-07-31T17:09:14;19.20;99.90
27797;DHT22;15177;50.844;4.412;2023-07-31T17:11:40;19.20;99.90
27797;DHT22;15177;50.844;4.412;2023-07-31T17:14:05;19.20;99.90
27797;DHT22;15177;50.844;4.412;2023-07-31T17:16:37;19.20;99.90
27797;DHT22;15177;50.844;4.412;2023-07-31T17:19:03;19.10;99.90
27797;DHT22;15177;50.844;4.412;2023-07-31T17:21:28;19.10;99.90
27797;DHT22;15177;50.844;4.412;2023-07-31T17:23:55;19.10;99.90
27797;DHT22;15177;50.844;4.412;2023-07-31T17:26:22;19.20;99.90
27797;DHT22;15177;50.844;4.412;2023-07-31T17:28:48;19.10;99.90
27797;DHT22;15177;50.844;4.412;2023-07-31T17:31:14;19.10;99.90
27797;DHT22;15177;50.844;4.412;2023-07-31T17:33:40;19.10;99.90
27797;DHT22;15177;50.844;4.412;2023-07-31T17:36:06;19.20;99.90
27797;DHT22;15177;50.844;4.412;2023-07-31T17:38:31;19.20;99.90
27797;DHT22;15177;50.844;4.412;2023-07-31T17:40:57;19.10;99.90
27797;DHT22;15177;50.844;4.412;2023-07-31T17:43:23;19.20;99.90
27797;DHT22;15177;50.844;4.412;2023-07-31T17:45:50;19.10;99.90
27797;DHT22;15177;50.844;4.412;2023-07-31T17:48:16;19.20;99.90
27797;DHT22;15177;50.844;4.412;2023-07-31T17:50:42;19.10;99.90
27797;DHT22;15177;50.844;4.412;2023-07-31T17:53:07;19.10;99.90
27797;DHT22;15177;50.844;4.412;2023-07-31T17:55:33;19.20;99.90
27797;DHT22;15177;50.844;4.412;2023-07-31T17:58:00;19.20;99.90
27797;DHT22;15177;50.844;4.412;2023-07-31T18:00:25;19.20;99.90
27797;DHT22;15177;50.844;4.412;2023-07-31T18:02:51;19.20;99.90
27797;DHT22;15177;50.844;4.412;2023-07-31T18:05:17;19.20;99.90
27797;DHT22;15177;50.844;4.412;2023-07-31T18:07:42;19.20;99.90
27797;DHT22;15177;50.844;4.412;2023-07-31T18:10:08;19.20;99.90
27797;DHT22;15177;50.844;4.412;2023-07-31T18:12:36;19.10;99.90
27797;DHT22;15177;50.844;4.412;2023-07-31T18:15:03;19.00;99.90
27797;DHT22;15177;50.844;4.412;2023-07-31T18:17:29;19.00;99.90
27797;DHT22;15177;50.844;4.412;2023-07-31T18:19:56;18.90;99.90
27797;DHT22;15177;50.844;4.412;2023-07-31T18:22:22;18.90;99.90
27797;DHT22;15177;50.844;4.412;2023-07-31T18:24:47;18.90;99.90
27797;DHT22;15177;50.844;4.412;2023-07-31T18:27:13;18.80;99.90
27797;DHT22;15177;50.844;4.412;2023-07-31T18:29:40;18.80;99.90
27797;DHT22;15177;50.844;4.412;2023-07-31T18:32:06;18.90;99.90
27797;DHT22;15177;50.844;4.412;2023-07-31T18:34:33;19.00;99.90
27797;DHT22;15177;50.844;4.412;2023-07-31T18:36:59;19.00;99.90
27797;DHT22;15177;50.844;4.412;2023-07-31T18:39:25;19.00;99.90
27797;DHT22;15177;50.844;4.412;2023-07-31T18:41:51;19.00;99.90
27797;DHT22;15177;50.844;4.412;2023-07-31T18:44:16;19.00;99.90
27797;DHT22;15177;50.844;4.412;2023-07-31T18:46:42;19.10;99.90
27797;DHT22;15177;50.844;4.412;2023-07-31T18:49:08;19.10;99.90
27797;DHT22;15177;50.844;4.412;2023-07-31T18:51:34;19.10;99.90
27797;DHT22;15177;50.844;4.412;2023-07-31T18:54:03;19.10;99.90
27797;DHT22;15177;50.844;4.412;2023-07-31T18:56:29;19.10;99.90
27797;DHT22;15177;50.844;4.412;2023-07-31T18:58:54;19.20;99.90
27797;DHT22;15177;50.844;4.412;2023-07-31T19:01:20;19.20;99.90
27797;DHT22;15177;50.844;4.412;2023-07-31T19:03:46;19.20;99.90
27797;DHT22;15177;50.844;4.412;2023-07-31T19:06:12;19.20;99.90
27797;DHT22;15177;50.844;4.412;2023-07-31T19:08:37;19.20;99.90
27797;DHT22;15177;50.844;4.412;2023-07-31T19:11:04;19.20;99.90
27797;DHT22;15177;50.844;4.412;2023-07-31T19:13:29;19.20;99.90
27797;DHT22;15177;50.844;4.412;2023-07-31T19:15:55;19.20;99.90
27797;DHT22;15177;50.844;4.412;2023-07-31T19:18:21;19.20;99.90
27797;DHT22;15177;50.844;4.412;2023-07-31T19:20:46;19.20;99.90
27797;DHT22;15177;50.844;4.412;2023-07-31T19:23:12;19.10;99.90
27797;DHT22;15177;50.844;4.412;2023-07-31T19:25:38;19.10;99.90
27797;DHT22;15177;50.844;4.412;2023-07-31T19:28:04;19.20;99.90
27797;DHT22;15177;50.844;4.412;2023-07-31T19:30:29;19.30;99.90
27797;DHT22;15177;50.844;4.412;2023-07-31T19:32:55;19.30;99.90
27797;DHT22;15177;50.844;4.412;2023-07-31T19:35:22;19.30;99.90
27797;DHT22;15177;50.844;4.412;2023-07-31T19:37:49;19.30;99.90
27797;DHT22;15177;50.844;4.412;2023-07-31T19:40:14;19.30;99.90
27797;DHT22;15177;50.844;4.412;2023-07-31T19:42:40;19.30;99.90
27797;DHT22;15177;50.844;4.412;2023-07-31T19:45:06;19.20;99.90
27797;DHT22;15177;50.844;4.412;2023-07-31T19:47:32;19.20;99.90
27797;DHT22;15177;50.844;4.412;2023-07-31T19:49:58;19.20;99.90
27797;DHT22;15177;50.844;4.412;2023-07-31T19:52:24;19.10;99.90
27797;DHT22;15177;50.844;4.412;2023-07-31T19:54:50;19.10;99.90
27797;DHT22;15177;50.844;4.412;2023-07-31T19:57:16;19.10;99.90
27797;DHT22;15177;50.844;4.412;2023-07-31T19:59:41;19.10;99.90
27797;DHT22;15177;50.844;4.412;2023-07-31T20:02:08;19.10;99.90
27797;DHT22;15177;50.844;4.412;2023-07-31T20:04:33;19.10;99.90
27797;DHT22;15177;50.844;4.412;2023-07-31T20:06:59;19.10;99.90
27797;DHT22;15177;50.844;4.412;2023-07-31T20:09:26;19.10;99.90
27797;DHT22;15177;50.844;4.412;2023-07-31T20:11:52;19.10;99.90
27797;DHT22;15177;50.844;4.412;2023-07-31T20:14:18;19.10;99.90
27797;DHT22;15177;50.844;4.412;2023-07-31T20:16:44;19.10;99.90
27797;DHT22;15177;50.844;4.412;2023-07-31T20:19:10;19.10;99.90
27797;DHT22;15177;50.844;4.412;2023-07-31T20:21:36;19.10;99.90
27797;DHT22;15177;50.844;4.412;2023-07-31T20:24:08;19.10;99.90
27797;DHT22;15177;50.844;4.412;2023-07-31T20:26:34;19.10;99.90
27797;DHT22;15177;50.844;4.412;2023-07-31T20:29:00;19.10;99.90
27797;DHT22;15177;50.844;4.412;2023-07-31T20:31:26;19.10;99.90
27797;DHT22;15177;50.844;4.412;2023-07-31T20:33:52;19.20;99.90
27797;DHT22;15177;50.844;4.412;2023-07-31T20:36:17;19.30;99.90
27797;DHT22;15177;50.844;4.412;2023-07-31T20:38:43;19.40;99.90
27797;DHT22;15177;50.844;4.412;2023-07-31T20:41:12;19.40;99.90
27797;DHT22;15177;50.844;4.412;2023-07-31T20:43:38;19.30;99.90
27797;DHT22;15177;50.844;4.412;2023-07-31T20:46:04;19.30;99.90
27797;DHT22;15177;50.844;4.412;2023-07-31T20:48:30;19.30;99.90
27797;DHT22;15177;50.844;4.412;2023-07-31T20:51:00;19.30;99.90
27797;DHT22;15177;50.844;4.412;2023-07-31T20:53:27;19.20;99.90
27797;DHT22;15177;50.844;4.412;2023-07-31T20:55:53;19.20;99.90
27797;DHT22;15177;50.844;4.412;2023-07-31T20:58:18;19.30;99.90
27797;DHT22;15177;50.844;4.412;2023-07-31T21:00:44;19.30;99.90
27797;DHT22;15177;50.844;4.412;2023-07-31T21:03:11;19.30;99.90
27797;DHT22;15177;50.844;4.412;2023-07-31T21:05:37;19.30;99.90
27797;DHT22;15177;50.844;4.412;2023-07-31T21:08:03;19.30;99.90
27797;DHT22;15177;50.844;4.412;2023-07-31T21:10:29;19.30;99.90
27797;DHT22;15177;50.844;4.412;2023-07-31T21:12:55;19.40;99.90
27797;DHT22;15177;50.844;4.412;2023-07-31T21:15:20;19.40;99.90
27797;DHT22;15177;50.844;4.412;2023-07-31T21:17:46;19.40;99.90
27797;DHT22;15177;50.844;4.412;2023-07-31T21:20:12;19.30;99.90
27797;DHT22;15177;50.844;4.412;2023-07-31T21:22:38;19.30;99.90
27797;DHT22;15177;50.844;4.412;2023-07-31T21:25:04;19.30;99.90
27797;DHT22;15177;50.844;4.412;2023-07-31T21:27:30;19.30;99.90
27797;DHT22;15177;50.844;4.412;2023-07-31T21:29:56;19.30;99.90
27797;DHT22;15177;50.844;4.412;2023-07-31T21:32:23;19.40;99.90
27797;DHT22;15177;50.844;4.412;2023-07-31T21:34:49;19.40;99.90
27797;DHT22;15177;50.844;4.412;2023-07-31T21:37:14;19.30;99.90
27797;DHT22;15177;50.844;4.412;2023-07-31T21:39:40;19.20;99.90
27797;DHT22;15177;50.844;4.412;2023-07-31T21:42:07;19.20;99.90
27797;DHT22;15177;50.844;4.412;2023-07-31T21:44:33;19.20;99.90
27797;DHT22;15177;50.844;4.412;2023-07-31T21:46:59;19.10;99.90
27797;DHT22;15177;50.844;4.412;2023-07-31T21:49:25;19.20;99.90
27797;DHT22;15177;50.844;4.412;2023-07-31T21:51:51;19.10;99.90
27797;DHT22;15177;50.844;4.412;2023-07-31T21:54:18;19.00;99.90
27797;DHT22;15177;50.844;4.412;2023-07-31T21:56:43;19.10;99.90
27797;DHT22;15177;50.844;4.412;2023-07-31T21:59:09;19.00;99.90
27797;DHT22;15177;50.844;4.412;2023-07-31T22:01:37;19.00;99.90
27797;DHT22;15177;50.844;4.412;2023-07-31T22:04:03;19.00;99.90
27797;DHT22;15177;50.844;4.412;2023-07-31T22:06:29;19.00;99.90
27797;DHT22;15177;50.844;4.412;2023-07-31T22:08:54;18.90;99.90
27797;DHT22;15177;50.844;4.412;2023-07-31T22:11:20;18.80;99.90
27797;DHT22;15177;50.844;4.412;2023-07-31T22:13:46;18.80;99.90
27797;DHT22;15177;50.844;4.412;2023-07-31T22:16:13;18.80;99.90
27797;DHT22;15177;50.844;4.412;2023-07-31T22:18:38;18.80;99.90
27797;DHT22;15177;50.844;4.412;2023-07-31T22:21:04;18.80;99.90
27797;DHT22;15177;50.844;4.412;2023-07-31T22:23:30;18.80;99.90
27797;DHT22;15177;50.844;4.412;2023-07-31T22:25:56;18.80;99.90
27797;DHT22;15177;50.844;4.412;2023-07-31T22:28:21;18.70;99.90
27797;DHT22;15177;50.844;4.412;2023-07-31T22:30:48;18.60;99.90
27797;DHT22;15177;50.844;4.412;2023-07-31T22:33:13;18.60;99.90
27797;DHT22;15177;50.844;4.412;2023-07-31T22:35:39;18.50;99.90
27797;DHT22;15177;50.844;4.412;2023-07-31T22:38:05;18.60;99.90
27797;DHT22;15177;50.844;4.412;2023-07-31T22:40:30;18.50;99.90
27797;DHT22;15177;50.844;4.412;2023-07-31T22:42:56;18.50;99.90
27797;DHT22;15177;50.844;4.412;2023-07-31T22:45:22;18.40;99.90
27797;DHT22;15177;50.844;4.412;2023-07-31T22:47:47;18.40;99.90
27797;DHT22;15177;50.844;4.412;2023-07-31T22:50:13;18.50;99.90
27797;DHT22;15177;50.844;4.412;2023-07-31T22:52:39;18.40;99.90
27797;DHT22;15177;50.844;4.412;2023-07-31T22:55:05;18.50;99.90
27797;DHT22;15177;50.844;4.412;2023-07-31T22:57:31;18.50;99.90
27797;DHT22;15177;50.844;4.412;2023-07-31T22:59:57;18.50;99.90
27797;DHT22;15177;50.844;4.412;2023-07-31T23:02:23;18.50;99.90
27797;DHT22;15177;50.844;4.412;2023-07-31T23:04:49;18.40;99.90
27797;DHT22;15177;50.844;4.412;2023-07-31T23:07:18;18.40;99.90
27797;DHT22;15177;50.844;4.412;2023-07-31T23:09:44;18.50;99.90
27797;DHT22;15177;50.844;4.412;2023-07-31T23:12:10;18.50;99.90
27797;DHT22;15177;50.844;4.412;2023-07-31T23:14:35;18.50;99.90
27797;DHT22;15177;50.844;4.412;2023-07-31T23:17:01;18.50;99.90
27797;DHT22;15177;50.844;4.412;2023-07-31T23:19:27;18.50;99.90
27797;DHT22;15177;50.844;4.412;2023-07-31T23:21:52;18.50;99.90
27797;DHT22;15177;50.844;4.412;2023-07-31T23:24:18;18.50;99.90
27797;DHT22;15177;50.844;4.412;2023-07-31T23:26:44;18.50;99.90
27797;DHT22;15177;50.844;4.412;2023-07-31T23:29:10;18.50;99.90
27797;DHT22;15177;50.844;4.412;2023-07-31T23:31:35;18.50;99.90
27797;DHT22;15177;50.844;4.412;2023-07-31T23:34:01;18.60;99.90
27797;DHT22;15177;50.844;4.412;2023-07-31T23:36:27;18.50;99.90
27797;DHT22;15177;50.844;4.412;2023-07-31T23:38:52;18.50;99.90
27797;DHT22;15177;50.844;4.412;2023-07-31T23:41:18;18.50;99.90
27797;DHT22;15177;50.844;4.412;2023-07-31T23:43:44;18.40;99.90
27797;DHT22;15177;50.844;4.412;2023-07-31T23:46:10;18.40;99.90
27797;DHT22;15177;50.844;4.412;2023-07-31T23:48:36;18.40;99.90
27797;DHT22;15177;50.844;4.412;2023-07-31T23:51:01;18.40;99.90
27797;DHT22;15177;50.844;4.412;2023-07-31T23:53:30;18.40;99.90
27797;DHT22;15177;50.844;4.412;2023-07-31T23:55:56;18.30;99.90
27797;DHT22;15177;50.844;4.412;2023-07-31T23:58:23;18.20;99.90
